Time;durP1;ratioP1;P1;durP2;ratioP2;P2;SDS_P1;SDS_P2;PMS_P1;PMS_P2;Temp;Humidity;BMP_temperature;BMP_pressure;BME280_temperature;BME280_humidity;BME280_pressure;Samples;Min_cycle;Max_cycle;Signal;HPM_P1;HPM_P2
2023/07/01 08:22:02;;;;;;;;;;;;;;;22.87;38.24;99224.31;1086119;54;19931;-85
2023/07/01 08:23:04;;;;;;;;;;;;;;;23.01;37.72;99215.84;1086581;47;21000;-84
2023/07/01 08:24:10;;;;;;;;;;;;;;;23.07;37.87;99223.00;1087265;54;19942;-84
2023/07/01 08:25:11;;;;;;;;;;;;;;;23.05;37.67;99216.97;1087168;54;19950;-83
2023/07/01 08:26:15;;;;;;;;;;;;;;;23.29;37.41;99211.41;1087060;54;19942;-85
2023/07/01 08:27:17;;;;;;;;;;;;;;;23.20;37.44;99220.00;1087879;39;20252;-85
2023/07/01 08:28:20;;;;;;;;;;;;;;;23.42;37.45;99216.53;1087106;47;19969;-83
2023/07/01 08:29:21;;;;;;;;;;;;;;;23.36;37.17;99218.34;1086940;47;19946;-84
2023/07/01 08:30:25;;;;;;;;;;;;;;;23.10;37.31;99216.25;1087006;47;19946;-84
2023/07/01 08:31:50;;;;;;;;;;;;;;;;;;;;;
2023/07/01 08:33:13;;;;;;;;;;;;;;;22.97;36.94;99225.56;1087281;39;20634;-81
2023/07/01 08:34:17;;;;;;;;;;;;;;;23.03;37.12;99211.78;1086817;54;19942;-82
2023/07/01 08:35:18;;;;;;;;;;;;;;;22.85;37.50;99215.59;1086984;54;19998;-82
2023/07/01 08:36:24;;;;;;;;;;;;;;;22.93;37.54;99214.34;1086794;47;20373;-84
2023/07/01 08:37:28;;;;;;;;;;;;;;;22.69;38.03;99216.38;1087011;54;20005;-86
2023/07/01 08:38:31;;;;;;;;;;;;;;;22.57;38.04;99211.00;1086817;47;19939;-84
2023/07/01 08:39:32;;;;;;;;;;;;;;;22.85;37.73;99206.56;1086790;47;19938;-81
2023/07/01 08:40:36;;;;;;;;;;;;;;;22.82;37.92;99199.72;1086766;54;20006;-83
2023/07/01 08:41:41;;;;;;;;;;;;;;;22.92;37.63;99198.25;1087002;54;19976;-81
2023/07/01 08:42:53;;;;;;;;;;;;;;;22.93;37.58;99203.44;1086813;47;19945;-83
2023/07/01 08:43:58;;;;;;;;;;;;;;;23.20;37.25;99200.91;1087082;54;19950;-84
2023/07/01 08:45:02;;;;;;;;;;;;;;;23.10;37.35;99195.28;1087004;54;19973;-85
2023/07/01 08:46:03;;;;;;;;;;;;;;;22.96;37.70;99205.69;1087062;47;19939;-86
2023/07/01 08:47:07;;;;;;;;;;;;;;;23.35;37.24;99200.34;1087128;47;19939;-83
2023/07/01 08:48:11;;;;;;;;;;;;;;;23.51;36.91;99185.03;1087269;54;19943;-82
2023/07/01 08:49:14;;;;;;;;;;;;;;;23.26;37.28;99184.63;1087150;46;20021;-84
2023/07/01 08:50:29;;;;;;;;;;;;;;;23.30;37.01;99189.34;1087486;47;19946;-86
2023/07/01 08:51:43;;;;;;;;;;;;;;;23.49;36.86;99187.16;1087100;47;19939;-85
2023/07/01 08:53:01;;;;;;;;;;;;;;;23.49;36.54;99186.31;1087335;47;19973;-87
2023/07/01 08:54:03;;;;;;;;;;;;;;;23.76;36.06;99183.72;1087187;47;19938;-85
2023/07/01 08:55:07;;;;;;;;;;;;;;;23.67;36.49;99177.03;1087285;47;19972;-87
2023/07/01 08:56:09;;;;;;;;;;;;;;;23.76;36.18;99178.25;1089654;39;19989;-82
2023/07/01 08:57:12;;;;;;;;;;;;;;;23.99;35.96;99174.47;1087209;54;19943;-83
2023/07/01 08:58:14;;;;;;;;;;;;;;;24.00;36.01;99178.00;1087083;47;19994;-84
2023/07/01 08:59:18;;;;;;;;;;;;;;;24.22;35.46;99171.72;1087164;47;19938;-86
2023/07/01 09:00:21;;;;;;;;;;;;;;;24.39;35.61;99168.91;1087824;39;20408;-87
2023/07/01 09:01:26;;;;;;;;;;;;;;;24.37;35.38;99182.78;1087053;46;19962;-82
2023/07/01 09:02:28;;;;;;;;;;;;;;;24.19;35.58;99177.69;1087206;46;20011;-82
2023/07/01 09:03:32;;;;;;;;;;;;;;;24.39;35.69;99179.81;1087120;47;19939;-81
2023/07/01 09:04:35;;;;;;;;;;;;;;;24.08;36.36;99180.31;1087118;46;19991;-83
2023/07/01 09:05:38;;;;;;;;;;;;;;;24.08;36.04;99180.31;1086983;47;19938;-83
2023/07/01 09:06:39;;;;;;;;;;;;;;;24.32;35.97;99180.03;1087096;54;20006;-81
2023/07/01 09:07:43;;;;;;;;;;;;;;;24.22;35.63;99182.63;1087262;54;19950;-81
2023/07/01 09:08:47;;;;;;;;;;;;;;;24.67;34.95;99170.53;1087050;47;20073;-81
2023/07/01 09:09:51;;;;;;;;;;;;;;;24.85;35.13;99171.25;1087150;46;19994;-83
2023/07/01 09:11:14;;;;;;;;;;;;;;;24.51;35.52;99171.47;1087084;47;20908;-84
2023/07/01 09:12:14;;;;;;;;;;;;;;;24.30;35.77;99177.56;1087204;47;19938;-83
2023/07/01 09:13:18;;;;;;;;;;;;;;;24.05;36.28;99174.53;1087106;47;19998;-79
2023/07/01 09:14:19;;;;;;;;;;;;;;;24.16;36.05;99164.56;1086924;47;19966;-82
2023/07/01 09:15:23;;;;;;;;;;;;;;;24.25;35.75;99169.28;1087312;46;19969;-83
2023/07/01 09:16:34;;;;;;;;;;;;;;;24.32;35.72;99169.09;1087136;47;19939;-82
2023/07/01 09:17:36;;;;;;;;;;;;;;;24.56;34.93;99158.69;1087205;54;19957;-82
2023/07/01 09:18:43;;;;;;;;;;;;;;;24.43;35.20;99162.66;1087312;47;19946;-83
2023/07/01 09:19:49;;;;;;;;;;;;;;;24.49;35.28;99163.53;1087088;47;19939;-82
2023/07/01 09:20:52;;;;;;;;;;;;;;;24.37;35.23;99162.88;1087140;54;20065;-83
2023/07/01 09:22:07;;;;;;;;;;;;;;;24.47;35.12;99157.50;1087311;46;19953;-82
2023/07/01 09:23:10;;;;;;;;;;;;;;;24.20;35.62;99150.13;1087277;46;20056;-83
2023/07/01 09:24:14;;;;;;;;;;;;;;;24.36;35.29;99150.28;1087134;47;20010;-84
2023/07/01 09:25:27;;;;;;;;;;;;;;;24.39;35.65;99153.31;1087297;54;19942;-84
2023/07/01 09:26:31;;;;;;;;;;;;;;;24.16;35.76;99153.63;1087200;47;19939;-85
2023/07/01 09:27:39;;;;;;;;;;;;;;;24.15;35.69;99150.06;1087307;54;19942;-84
2023/07/01 09:28:42;;;;;;;;;;;;;;;24.52;35.08;99143.06;1087796;54;19950;-83
2023/07/01 09:29:47;;;;;;;;;;;;;;;24.84;34.59;99136.84;1087647;47;19938;-82
2023/07/01 09:30:47;;;;;;;;;;;;;;;25.06;33.78;99137.53;1087652;54;19927;-83
2023/07/01 09:31:53;;;;;;;;;;;;;;;24.99;33.87;99141.56;1087686;54;19969;-84
2023/07/01 09:33:10;;;;;;;;;;;;;;;25.11;33.01;99135.94;1087698;47;20008;-81
2023/07/01 09:34:13;;;;;;;;;;;;;;;25.15;33.33;99143.34;1087805;46;19945;-77
2023/07/01 09:35:14;;;;;;;;;;;;;;;24.98;33.58;99138.03;1087713;54;19942;-82
2023/07/01 09:36:26;;;;;;;;;;;;;;;25.06;33.41;99134.78;1090063;39;20847;-81
2023/07/01 09:37:27;;;;;;;;;;;;;;;25.01;33.16;99142.13;1087597;54;19949;-81
2023/07/01 09:38:30;;;;;;;;;;;;;;;24.65;33.36;99139.09;1087597;54;19942;-79
2023/07/01 09:39:34;;;;;;;;;;;;;;;24.57;32.90;99134.91;1087548;47;19938;-81
2023/07/01 09:40:38;;;;;;;;;;;;;;;24.53;33.29;99133.81;1087575;54;19965;-80
2023/07/01 09:41:38;;;;;;;;;;;;;;;24.89;32.61;99134.13;1087566;47;19939;-80
2023/07/01 09:42:52;;;;;;;;;;;;;;;24.72;33.15;99131.53;1087653;54;20018;-81
2023/07/01 09:43:53;;;;;;;;;;;;;;;24.80;33.36;99127.50;1087627;47;20003;-81
2023/07/01 09:45:07;;;;;;;;;;;;;;;24.64;33.60;99137.44;1087672;47;19998;-81
2023/07/01 09:46:08;;;;;;;;;;;;;;;24.75;33.34;99134.56;1087541;46;19965;-81
2023/07/01 09:47:12;;;;;;;;;;;;;;;24.62;33.78;99118.59;1087330;54;19969;-79
2023/07/01 09:48:16;;;;;;;;;;;;;;;24.79;33.58;99123.09;1087291;47;19963;-82
2023/07/01 09:49:21;;;;;;;;;;;;;;;24.76;33.34;99122.53;1087534;47;19938;-79
2023/07/01 09:50:22;;;;;;;;;;;;;;;24.74;33.19;99116.53;1090830;39;20160;-83
2023/07/01 09:51:27;;;;;;;;;;;;;;;24.97;32.93;99117.22;1087505;46;19950;-82
2023/07/01 09:52:31;;;;;;;;;;;;;;;25.06;32.99;99118.38;1087619;54;19954;-81
2023/07/01 09:53:35;;;;;;;;;;;;;;;25.07;32.56;99120.03;1087452;54;19973;-83
2023/07/01 09:54:42;;;;;;;;;;;;;;;25.21;32.07;99120.41;1087523;54;19943;-82
2023/07/01 09:55:45;;;;;;;;;;;;;;;24.99;32.68;99109.59;1087545;54;19942;-79
2023/07/01 09:56:48;;;;;;;;;;;;;;;25.42;32.06;99108.78;1087653;46;19939;-82
2023/07/01 09:57:51;;;;;;;;;;;;;;;25.30;32.44;99112.53;1087420;47;19942;-82
2023/07/01 09:58:52;;;;;;;;;;;;;;;25.62;32.03;99117.06;1087577;47;20010;-84
2023/07/01 09:59:56;;;;;;;;;;;;;;;25.64;32.35;99112.16;1087051;47;19938;-83
2023/07/01 10:00:57;;;;;;;;;;;;;;;25.53;32.03;99121.41;1087049;47;19939;-80
2023/07/01 10:02:02;;;;;;;;;;;;;;;25.03;32.63;99113.44;1088975;39;20201;-78
2023/07/01 10:03:02;;;;;;;;;;;;;;;25.24;32.62;99108.09;1086899;47;19939;-83
2023/07/01 10:04:09;;;;;;;;;;;;;;;25.12;32.66;99110.25;1087003;54;19969;-84
2023/07/01 10:05:12;;;;;;;;;;;;;;;25.26;32.39;99105.94;1087098;54;19965;-85
2023/07/01 10:06:16;;;;;;;;;;;;;;;25.29;32.60;99101.84;1087101;47;19939;-82
2023/07/01 10:07:17;;;;;;;;;;;;;;;25.30;32.42;99107.06;1086966;46;19939;-84
2023/07/01 10:08:20;;;;;;;;;;;;;;;25.31;32.57;99096.94;1087073;54;19938;-80
2023/07/01 10:09:23;;;;;;;;;;;;;;;25.38;32.26;99098.34;1089616;39;21029;-81
2023/07/01 10:10:29;;;;;;;;;;;;;;;25.32;32.52;99101.31;1087091;47;19923;-81
2023/07/01 10:11:37;;;;;;;;;;;;;;;25.20;32.53;99104.25;1087029;54;19938;-83
2023/07/01 10:12:47;;;;;;;;;;;;;;;25.19;32.72;99103.44;1087015;54;19950;-83
2023/07/01 10:13:56;;;;;;;;;;;;;;;25.22;32.47;99104.84;1086714;54;19938;-77
2023/07/01 10:15:08;;;;;;;;;;;;;;;25.07;33.17;99098.16;1087181;54;19950;-80
2023/07/01 10:16:16;;;;;;;;;;;;;;;24.75;33.85;99099.03;1086986;54;19938;-81
2023/07/01 10:17:21;;;;;;;;;;;;;;;24.66;33.80;99103.28;1086992;54;20044;-81
2023/07/01 10:18:23;;;;;;;;;;;;;;;24.52;34.56;99102.91;1087246;46;19938;-82
2023/07/01 10:19:32;;;;;;;;;;;;;;;24.45;34.48;99100.41;1087146;54;19942;-82
2023/07/01 10:20:34;;;;;;;;;;;;;;;24.41;34.69;99101.19;1089208;39;20283;-81
2023/07/01 10:21:39;;;;;;;;;;;;;;;24.54;34.20;99110.88;1086923;47;19939;-79
2023/07/01 10:22:52;;;;;;;;;;;;;;;24.60;34.35;99110.66;1086993;54;19943;-78
2023/07/01 10:23:56;;;;;;;;;;;;;;;24.69;34.45;99105.56;1088576;39;20816;-82
2023/07/01 10:24:58;;;;;;;;;;;;;;;24.86;33.86;99096.38;1086891;47;19939;-81
2023/07/01 10:26:24;;;;;;;;;;;;;;;25.02;33.72;99092.69;1087084;46;19938;-78
2023/07/01 10:27:49;;;;;;;;;;;;;;;25.23;33.78;99090.03;1087019;54;19960;-83
2023/07/01 10:28:52;;;;;;;;;;;;;;;25.18;33.78;99092.75;1087005;54;19949;-78
2023/07/01 10:29:56;;;;;;;;;;;;;;;24.91;33.83;99089.03;1086999;47;19965;-83
2023/07/01 10:31:15;;;;;;;;;;;;;;;24.75;33.23;99095.50;1087171;46;19938;-82
2023/07/01 10:32:29;;;;;;;;;;;;;;;24.69;33.27;99091.88;1087049;47;19969;-84
2023/07/01 10:34:00;;;;;;;;;;;;;;;24.69;33.44;99091.88;1086906;47;19971;-81
2023/07/01 10:35:09;;;;;;;;;;;;;;;24.56;32.94;99095.06;1086913;54;19994;-81
2023/07/01 10:36:13;;;;;;;;;;;;;;;24.45;33.26;99096.84;1086952;54;21025;-82
2023/07/01 10:37:28;;;;;;;;;;;;;;;24.57;32.93;99085.75;1087952;39;20184;-83
2023/07/01 10:38:30;;;;;;;;;;;;;;;24.35;33.50;99096.75;1087037;54;19939;-80
2023/07/01 10:39:34;;;;;;;;;;;;;;;24.53;33.34;99092.81;1086887;47;20342;-81
2023/07/01 10:40:42;;;;;;;;;;;;;;;24.54;33.10;99094.47;1086985;47;19982;-83
2023/07/01 10:41:57;;;;;;;;;;;;;;;24.73;32.89;99089.44;1087016;54;19943;-84
2023/07/01 10:43:13;;;;;;;;;;;;;;;24.48;32.78;99092.78;1087122;47;20053;-80
2023/07/01 10:44:27;;;;;;;;;;;;;;;24.36;33.15;99093.78;1087016;54;19949;-83
2023/07/01 10:45:36;;;;;;;;;;;;;;;24.38;32.93;99086.13;1087050;46;19965;-80
2023/07/01 10:46:40;;;;;;;;;;;;;;;24.34;32.93;99085.03;1087032;47;19939;-81
2023/07/01 10:47:43;;;;;;;;;;;;;;;24.53;32.76;99093.63;1087067;54;19939;-79
2023/07/01 10:49:06;;;;;;;;;;;;;;;24.66;32.39;99086.91;1087012;54;19942;-82
2023/07/01 10:50:07;;;;;;;;;;;;;;;24.43;33.28;99090.81;1087082;54;20114;-86
2023/07/01 10:51:11;;;;;;;;;;;;;;;24.46;33.47;99082.13;1087100;54;19942;-86
2023/07/01 10:52:12;;;;;;;;;;;;;;;24.45;33.52;99081.31;1087221;46;19965;-81
2023/07/01 10:53:17;;;;;;;;;;;;;;;24.52;33.21;99089.25;1087160;47;20830;-84
2023/07/01 10:54:40;;;;;;;;;;;;;;;24.24;34.01;99076.72;1086928;47;19950;-80
2023/07/01 10:55:44;;;;;;;;;;;;;;;24.18;33.65;99078.59;1087061;47;19969;-84
2023/07/01 10:58:08;;;;;;;;;;;;;;;24.24;34.12;99085.72;1087703;54;19987;-83
2023/07/01 10:59:29;;;;;;;;;;;;;;;24.05;34.43;99089.91;1087574;54;19946;-85
2023/07/01 11:00:40;;;;;;;;;;;;;;;24.25;34.34;99072.91;1087509;47;19994;-83
2023/07/01 11:02:48;;;;;;;;;;;;;;;24.25;34.56;99081.91;1087727;54;20027;-83
2023/07/01 11:03:55;;;;;;;;;;;;;;;24.07;35.32;99090.47;1087137;47;19961;-83
2023/07/01 11:06:25;;;;;;;;;;;;;;;24.31;35.28;99080.06;1089307;39;21029;-84
2023/07/01 11:07:27;;;;;;;;;;;;;;;24.37;35.21;99073.56;1086959;47;19939;-84
2023/07/01 11:08:31;;;;;;;;;;;;;;;24.18;35.68;99066.84;1086688;47;19938;-83
2023/07/01 11:09:35;;;;;;;;;;;;;;;24.19;35.61;99071.22;1087087;47;19969;-84
2023/07/01 11:10:35;;;;;;;;;;;;;;;24.18;35.96;99077.78;1087019;47;19939;-86
2023/07/01 11:11:39;;;;;;;;;;;;;;;24.07;35.99;99080.41;1086935;54;20357;-85
2023/07/01 11:12:42;;;;;;;;;;;;;;;23.97;36.61;99074.84;1087091;47;19945;-85
2023/07/01 11:14:11;;;;;;;;;;;;;;;24.08;36.62;99071.13;1087028;47;19994;-86
2023/07/01 11:15:18;;;;;;;;;;;;;;;24.09;36.66;99067.28;1087168;54;20006;-85
2023/07/01 11:16:38;;;;;;;;;;;;;;;24.24;36.23;99071.28;1086870;47;19964;-85
2023/07/01 11:17:50;;;;;;;;;;;;;;;24.02;36.91;99061.22;1087010;47;19951;-85
2023/07/01 11:18:54;;;;;;;;;;;;;;;23.80;36.96;99074.88;1086966;47;19938;-84
2023/07/01 11:19:57;;;;;;;;;;;;;;;23.73;37.24;99069.63;1087045;54;19965;-84
2023/07/01 11:21:03;;;;;;;;;;;;;;;23.74;37.33;99065.00;1086984;54;19943;-83
2023/07/01 11:22:05;;;;;;;;;;;;;;;23.83;37.25;99064.28;1087150;47;19962;-84
2023/07/01 11:23:11;;;;;;;;;;;;;;;23.89;37.44;99067.91;1087076;54;20030;-84
2023/07/01 11:24:21;;;;;;;;;;;;;;;23.99;37.06;99069.94;1087019;47;19938;-84
2023/07/01 11:25:25;;;;;;;;;;;;;;;23.91;37.15;99062.16;1087009;54;19969;-86
2023/07/01 11:26:27;;;;;;;;;;;;;;;23.83;37.69;99064.28;1086825;47;19939;-84
2023/07/01 11:27:31;;;;;;;;;;;;;;;23.59;38.05;99062.91;1086966;47;19939;-84
2023/07/01 11:28:33;;;;;;;;;;;;;;;23.71;37.92;99063.59;1087191;54;19949;-87
2023/07/01 11:29:41;;;;;;;;;;;;;;;23.64;38.10;99072.00;1087304;54;19947;-84
2023/07/01 11:30:45;;;;;;;;;;;;;;;23.83;37.72;99072.47;1087501;47;19934;-85
2023/07/01 11:34:38;;;;;;;;;;;;;;;23.88;37.93;99068.16;1077251;54;19942;-88
2023/07/01 11:35:59;;;;;;;;;;;;;;;23.84;38.16;99065.94;1076592;47;19950;31
2023/07/01 11:37:03;;;;;;;;;;;;;;;23.67;38.43;99067.94;1085400;46;19942;31
2023/07/01 11:39:35;;;;;;;;;;;;;;;23.76;38.28;99069.13;1074725;54;19950;31
2023/07/01 11:40:42;;;;;;;;;;;;;;;23.83;38.30;99068.94;1080356;47;19977;31
2023/07/01 11:43:32;;;;;;;;;;;;;;;23.78;38.55;99066.97;1087774;46;19962;-86
2023/07/01 11:44:36;;;;;;;;;;;;;;;23.94;38.23;99058.94;1088150;39;20366;-84
2023/07/01 11:45:55;;;;;;;;;;;;;;;23.95;38.27;99072.34;1087885;46;19938;-85
2023/07/01 11:47:06;;;;;;;;;;;;;;;23.81;38.54;99071.09;1087178;47;19950;-84
2023/07/01 11:49:14;;;;;;;;;;;;;;;24.04;38.37;99070.00;1087266;54;19942;-84
2023/07/01 11:50:14;;;;;;;;;;;;;;;23.81;38.58;99071.09;1087899;54;19942;-84
2023/07/01 11:51:18;;;;;;;;;;;;;;;23.79;38.99;99074.06;1087683;54;19974;-83
2023/07/01 11:53:23;;;;;;;;;;;;;;;23.58;39.49;99072.19;1086971;54;19934;-84
2023/07/01 11:54:41;;;;;;;;;;;;;;;23.45;39.56;99071.47;1087594;47;19946;-85
2023/07/01 11:58:27;;;;;;;;;;;;;;;23.58;39.30;99075.72;1087417;47;19955;-83
2023/07/01 11:59:30;;;;;;;;;;;;;;;23.48;39.47;99073.72;1087351;54;19966;-86
2023/07/01 12:00:31;;;;;;;;;;;;;;;23.61;39.39;99077.13;1087388;46;19943;-84
2023/07/01 12:02:45;;;;;;;;;;;;;;;23.72;39.33;99067.97;1073606;54;20856;31
2023/07/01 12:03:49;;;;;;;;;;;;;;;23.75;39.05;99066.66;1087903;54;19943;-85
2023/07/01 12:04:53;;;;;;;;;;;;;;;23.65;39.48;99070.06;1087084;47;19946;-85
2023/07/01 12:05:54;;;;;;;;;;;;;;;23.33;39.90;99077.06;1087799;54;20034;-88
2023/07/01 12:10:32;;;;;;;;;;;;;;;23.31;41.03;99071.03;1087070;47;19990;-89
2023/07/01 12:11:43;;;;;;;;;;;;;;;23.17;40.72;99067.81;1087219;47;19938;-87
2023/07/01 12:13:54;;;;;;;;;;;;;;;23.28;40.89;99065.25;1077568;39;21346;31
2023/07/01 12:16:00;;;;;;;;;;;;;;;23.08;41.04;99071.25;1087481;46;19950;-86
2023/07/01 12:17:05;;;;;;;;;;;;;;;23.33;40.50;99060.69;1079488;51;19946;31
2023/07/01 12:18:32;;;;;;;;;;;;;;;23.37;40.74;99052.84;1070709;47;19997;31
2023/07/01 12:19:44;;;;;;;;;;;;;;;23.39;40.62;99061.59;1070686;47;20757;31
2023/07/01 12:21:59;;;;;;;;;;;;;;;23.32;40.85;99063.69;1082930;54;19955;-87
2023/07/01 12:23:02;;;;;;;;;;;;;;;23.40;40.57;99055.06;1074003;47;20757;31
2023/07/01 12:26:43;;;;;;;;;;;;;;;23.25;41.08;99054.84;1087273;47;19950;-83
2023/07/01 12:27:48;;;;;;;;;;;;;;;23.09;41.16;99054.63;1087415;46;19975;-85
2023/07/01 12:52:51;;;;;;;;;;;;;;;22.63;43.22;99070.28;1087506;54;19946;-85
2023/07/01 13:47:13;;;;;;;;;;;;;;;23.92;41.11;99018.28;1071246;54;20915;31
2023/07/01 13:48:26;;;;;;;;;;;;;;;23.86;41.30;99019.28;1079906;47;20096;31
2023/07/01 13:51:41;;;;;;;;;;;;;;;23.64;42.01;99028.34;1077606;54;19946;31
2023/07/01 13:55:26;;;;;;;;;;;;;;;23.71;42.16;99033.59;1074088;54;20918;31
2023/07/01 13:56:28;;;;;;;;;;;;;;;23.74;42.11;99027.63;1074458;47;19945;31
2023/07/01 13:59:39;;;;;;;;;;;;;;;23.80;41.64;99023.03;1071238;47;19951;31
2023/07/01 14:01:55;;;;;;;;;;;;;;;23.78;42.21;99031.50;1106593;39;20238;-87
2023/07/01 14:04:03;;;;;;;;;;;;;;;23.99;41.83;99018.09;1070828;54;21202;31
2023/07/01 14:15:09;;;;;;;;;;;;;;;23.52;43.20;99014.03;1070279;54;19955;31
2023/07/01 14:17:30;;;;;;;;;;;;;;;23.51;43.27;99018.66;1088529;54;19946;-86
2023/07/01 14:22:47;;;;;;;;;;;;;;;23.29;43.81;99020.56;1070946;54;19942;31
2023/07/01 14:35:39;;;;;;;;;;;;;;;23.39;43.49;98998.88;1071947;39;20242;-91
2023/07/01 14:43:29;;;;;;;;;;;;;;;23.39;43.84;99000.75;1073938;54;19954;31
2023/07/01 14:48:36;;;;;;;;;;;;;;;23.37;43.72;98992.84;1076892;54;19946;31
2023/07/01 14:54:03;;;;;;;;;;;;;;;23.35;43.85;98984.09;1087786;54;19934;-85
2023/07/01 14:55:05;;;;;;;;;;;;;;;23.43;43.83;98985.56;1088036;47;19923;-87
2023/07/01 15:01:25;;;;;;;;;;;;;;;23.45;43.63;98981.50;1079751;54;20848;31
2023/07/01 15:02:29;;;;;;;;;;;;;;;23.28;43.87;98988.94;1070972;46;19937;31
2023/07/01 15:05:44;;;;;;;;;;;;;;;23.20;43.80;98985.56;1109439;39;20971;31
2023/07/01 15:07:51;;;;;;;;;;;;;;;23.28;43.45;98984.31;1071275;54;19996;31
2023/07/01 15:25:02;;;;;;;;;;;;;;;23.43;43.55;98980.91;1073731;39;20310;31
2023/07/01 15:26:06;;;;;;;;;;;;;;;23.50;43.54;98978.00;1071312;46;19942;31
2023/07/01 15:27:09;;;;;;;;;;;;;;;23.51;43.55;98980.47;1070737;47;19981;31
2023/07/01 15:28:13;;;;;;;;;;;;;;;23.56;43.61;98978.88;1073675;47;21252;31
2023/07/01 15:37:21;;;;;;;;;;;;;;;23.43;44.42;98988.28;1070516;54;19930;31
2023/07/01 15:39:42;;;;;;;;;;;;;;;23.24;44.93;98987.81;1070957;54;19942;31
